createdAt,value
2018-03-04T00:00:52.956Z,130.40
2018-03-04T00:01:53.128Z,132.80
2018-03-04T00:02:53.304Z,132.90
2018-03-04T00:03:53.487Z,133.40
2018-03-04T00:04:53.665Z,141.50
2018-03-04T00:05:53.830Z,136.50
2018-03-04T00:06:53.998Z,133.50
2018-03-04T00:07:54.173Z,133.50
2018-03-04T00:08:54.342Z,139.90
2018-03-04T00:09:54.526Z,125.40
2018-03-04T00:10:54.695Z,131.20
2018-03-04T00:11:54.875Z,133.00
2018-03-04T00:12:55.044Z,127.50
2018-03-04T00:13:55.218Z,132.60
2018-03-04T00:14:55.400Z,135.00
2018-03-04T00:15:55.567Z,130.30
2018-03-04T00:16:55.739Z,134.30
2018-03-04T00:17:55.910Z,136.70
2018-03-04T00:18:56.095Z,131.50
2018-03-04T00:19:56.269Z,133.10
2018-03-04T00:20:56.435Z,130.30
2018-03-04T00:21:56.609Z,131.70
2018-03-04T00:22:56.795Z,132.30
2018-03-04T00:23:56.958Z,133.40
2018-03-04T00:24:57.139Z,134.00
2018-03-04T00:25:57.308Z,133.70
2018-03-04T00:26:57.493Z,131.60
2018-03-04T00:27:57.660Z,136.60
2018-03-04T00:28:57.828Z,126.60
2018-03-04T00:29:58.009Z,135.20
2018-03-04T00:30:58.193Z,125.40
2018-03-04T00:31:58.352Z,130.80
2018-03-04T00:32:58.533Z,131.30
2018-03-04T00:33:58.695Z,135.80
2018-03-04T00:34:58.876Z,135.90
2018-03-04T00:35:59.045Z,139.40
2018-03-04T00:36:59.220Z,132.80
2018-03-04T00:37:59.380Z,133.10
2018-03-04T00:38:59.555Z,133.00
2018-03-04T00:39:59.732Z,133.90
2018-03-04T00:40:59.906Z,134.10
2018-03-04T00:42:00.080Z,138.20
2018-03-04T00:43:00.260Z,133.60
2018-03-04T00:44:00.431Z,131.00
2018-03-04T00:45:00.601Z,130.20
2018-03-04T00:46:00.788Z,132.20
2018-03-04T00:47:00.950Z,127.30
2018-03-04T00:48:01.124Z,137.80
2018-03-04T00:49:01.296Z,138.30
2018-03-04T00:50:01.451Z,132.20
2018-03-04T00:51:01.621Z,134.60
2018-03-04T00:52:01.805Z,135.40
2018-03-04T00:53:01.962Z,134.30
2018-03-04T00:54:02.142Z,140.10
2018-03-04T00:55:02.311Z,131.90
2018-03-04T00:56:02.485Z,140.00
2018-03-04T00:57:02.663Z,130.30
2018-03-04T00:58:02.841Z,129.70
2018-03-04T00:59:03.006Z,133.80
2018-03-04T01:00:03.176Z,129.90
2018-03-04T01:01:03.342Z,132.90
2018-03-04T01:02:03.517Z,130.40
2018-03-04T01:03:03.695Z,133.40
2018-03-04T01:04:03.860Z,130.90
2018-03-04T01:05:04.039Z,129.60
2018-03-04T01:06:04.218Z,131.60
2018-03-04T01:07:04.385Z,129.30
2018-03-04T01:08:04.556Z,134.00
2018-03-04T01:09:04.726Z,134.00
2018-03-04T01:10:04.911Z,139.30
2018-03-04T01:11:05.070Z,130.50
2018-03-04T01:12:05.245Z,131.20
2018-03-04T01:13:05.422Z,126.20
2018-03-04T01:14:05.587Z,130.10
2018-03-04T01:15:05.761Z,134.50
2018-03-04T01:16:05.954Z,132.90
2018-03-04T01:17:06.130Z,132.30
2018-03-04T01:18:06.313Z,123.70
2018-03-04T01:19:06.481Z,125.90
2018-03-04T01:20:06.665Z,132.10
2018-03-04T01:21:06.822Z,131.60
2018-03-04T01:22:07.006Z,134.00
2018-03-04T01:23:07.175Z,131.10
2018-03-04T01:24:07.344Z,136.30
2018-03-04T01:25:07.524Z,131.80
2018-03-04T01:26:07.694Z,134.90
2018-03-04T01:27:07.872Z,134.20
2018-03-04T01:28:08.044Z,130.90
2018-03-04T01:29:08.209Z,138.40
2018-03-04T01:30:08.388Z,135.00
2018-03-04T01:31:08.559Z,131.40
2018-03-04T01:32:16.616Z,132.20
2018-03-04T01:33:08.900Z,130.80
2018-03-04T01:34:09.085Z,134.00
2018-03-04T01:35:09.254Z,133.40
2018-03-04T01:36:09.935Z,131.00
2018-03-04T01:37:09.609Z,126.80
2018-03-04T01:38:09.793Z,130.60
2018-03-04T01:39:09.977Z,131.60
2018-03-04T01:40:10.151Z,136.60
2018-03-04T01:41:17.949Z,133.00
2018-03-04T01:42:18.128Z,132.40
2018-03-04T01:43:10.666Z,130.10
2018-03-04T01:44:19.340Z,138.00
2018-03-04T01:45:10.999Z,132.30
2018-03-04T01:46:11.418Z,126.00
2018-03-04T01:47:11.351Z,131.00
2018-03-04T01:48:11.528Z,125.90
2018-03-04T01:49:11.695Z,127.50
2018-03-04T01:50:11.864Z,129.00
2018-03-04T01:51:12.039Z,132.80
2018-03-04T01:52:12.211Z,130.80
2018-03-04T01:53:12.386Z,132.30
2018-03-04T01:54:12.563Z,134.40
2018-03-04T01:55:12.727Z,132.10
2018-03-04T01:56:13.168Z,137.00
2018-03-04T01:57:13.075Z,128.50
2018-03-04T01:58:13.249Z,130.10
2018-03-04T01:59:13.419Z,134.30
2018-03-04T02:00:13.592Z,128.70
2018-03-04T02:01:13.773Z,135.30
2018-03-04T02:02:13.934Z,129.70
2018-03-04T02:03:14.109Z,131.30
2018-03-04T02:04:14.297Z,128.70
2018-03-04T02:05:14.460Z,131.20
2018-03-04T02:06:14.635Z,130.20
2018-03-04T02:07:14.803Z,134.00
2018-03-04T02:08:14.981Z,133.30
2018-03-04T02:09:15.153Z,135.80
2018-03-04T02:10:15.323Z,138.00
2018-03-04T02:11:15.496Z,133.50
2018-03-04T02:12:15.663Z,137.60
2018-03-04T02:13:15.835Z,134.40
2018-03-04T02:14:16.014Z,137.80
2018-03-04T02:15:16.186Z,139.20
2018-03-04T02:16:16.355Z,138.90
2018-03-04T02:17:16.527Z,136.70
2018-03-04T02:18:16.701Z,140.50
2018-03-04T02:19:16.879Z,135.20
2018-03-04T02:20:17.049Z,134.00
2018-03-04T02:21:17.222Z,141.20
2018-03-04T02:22:17.392Z,140.40
2018-03-04T02:23:17.647Z,137.30
2018-03-04T02:24:17.725Z,137.30
2018-03-04T02:25:17.902Z,134.80
2018-03-04T02:26:18.086Z,140.20
2018-03-04T02:27:18.251Z,140.60
2018-03-04T02:28:18.417Z,140.50
2018-03-04T02:29:18.589Z,141.00
2018-03-04T02:30:18.766Z,145.60
2018-03-04T02:31:18.940Z,138.20
2018-03-04T02:32:19.106Z,141.90
2018-03-04T02:33:19.349Z,141.20
2018-03-04T02:34:19.497Z,142.50
2018-03-04T02:35:19.604Z,148.70
2018-03-04T02:36:19.789Z,141.40
2018-03-04T02:37:19.964Z,149.10
2018-03-04T02:38:20.136Z,142.80
2018-03-04T02:39:20.312Z,146.10
2018-03-04T02:40:20.528Z,148.00
2018-03-04T02:41:20.734Z,140.40
2018-03-04T02:42:22.061Z,148.50
2018-03-04T02:43:21.093Z,146.60
2018-03-04T02:44:21.277Z,147.60
2018-03-04T02:45:21.420Z,147.70
2018-03-04T02:46:21.598Z,144.00
2018-03-04T02:47:21.772Z,154.30
2018-03-04T02:48:21.935Z,149.20
2018-03-04T02:49:22.098Z,147.00
2018-03-04T02:50:22.294Z,143.80
2018-03-04T02:51:22.423Z,141.80
2018-03-04T02:52:22.600Z,144.50
2018-03-04T02:53:22.786Z,150.40
2018-03-04T02:54:22.928Z,147.20
2018-03-04T02:55:23.106Z,142.50
2018-03-04T02:56:23.273Z,144.00
2018-03-04T02:57:23.443Z,144.00
2018-03-04T02:58:23.620Z,145.90
2018-03-04T02:59:23.802Z,141.30
2018-03-04T03:00:23.972Z,144.70
2018-03-04T03:01:24.129Z,149.90
2018-03-04T03:02:24.564Z,147.40
2018-03-04T03:03:24.476Z,150.40
2018-03-04T03:04:24.657Z,148.30
2018-03-04T03:05:24.829Z,150.50
2018-03-04T03:06:24.981Z,149.70
2018-03-04T03:07:25.148Z,143.20
2018-03-04T03:08:25.320Z,144.40
2018-03-04T03:09:25.558Z,146.30
2018-03-04T03:10:25.659Z,142.60
2018-03-04T03:11:25.830Z,149.50
2018-03-04T03:12:26.003Z,145.60
2018-03-04T03:13:26.175Z,142.60
2018-03-04T03:14:26.345Z,144.70
2018-03-04T03:15:26.524Z,153.70
2018-03-04T03:16:26.691Z,143.70
2018-03-04T03:17:26.863Z,151.10
2018-03-04T03:18:27.039Z,144.90
2018-03-04T03:19:27.211Z,146.50
2018-03-04T03:20:27.384Z,149.00
2018-03-04T03:21:27.559Z,140.30
2018-03-04T03:22:27.733Z,149.20
2018-03-04T03:23:27.900Z,147.30
2018-03-04T03:24:28.079Z,144.00
2018-03-04T03:25:28.249Z,143.20
2018-03-04T03:26:28.423Z,145.10
2018-03-04T03:27:28.573Z,148.40
2018-03-04T03:28:28.758Z,149.30
2018-03-04T03:29:28.925Z,146.80
2018-03-04T03:30:29.103Z,150.70
2018-03-04T03:31:29.273Z,150.30
2018-03-04T03:32:29.448Z,153.70
2018-03-04T03:33:29.612Z,149.90
2018-03-04T03:34:29.802Z,152.70
2018-03-04T03:35:29.956Z,151.90
2018-03-04T03:36:30.126Z,153.20
2018-03-04T03:37:30.299Z,150.30
2018-03-04T03:39:30.637Z,155.80
2018-03-04T03:40:30.810Z,150.60
2018-03-04T03:41:30.981Z,152.70
2018-03-04T03:42:31.158Z,148.80
2018-03-04T03:43:31.334Z,155.30
2018-03-04T03:44:31.479Z,147.50
2018-03-04T03:45:31.654Z,146.40
2018-03-04T03:46:31.827Z,147.70
2018-03-04T03:47:32.002Z,144.10
2018-03-04T03:48:32.171Z,154.60
2018-03-04T03:49:32.343Z,147.40
2018-03-04T03:50:32.514Z,150.80
2018-03-04T03:52:32.859Z,155.80
2018-03-04T03:53:33.017Z,160.40
2018-03-04T03:54:33.199Z,154.40
2018-03-04T03:55:33.363Z,149.00
2018-03-04T03:56:33.534Z,158.40
2018-03-04T03:57:33.705Z,153.10
2018-03-04T03:58:33.891Z,152.80
2018-03-04T03:59:34.053Z,150.90
2018-03-04T04:00:34.231Z,152.30
2018-03-04T04:02:34.566Z,153.80
2018-03-04T04:03:34.748Z,158.30
2018-03-04T04:04:34.913Z,152.60
2018-03-04T04:05:35.084Z,150.40
2018-03-04T04:06:35.251Z,153.30
2018-03-04T04:07:35.423Z,157.20
2018-03-04T04:08:35.601Z,157.30
2018-03-04T04:09:35.776Z,153.20
2018-03-04T04:10:35.950Z,153.50
2018-03-04T04:11:36.123Z,157.40
2018-03-04T04:12:36.292Z,152.20
2018-03-04T04:13:36.467Z,157.90
2018-03-04T04:14:36.639Z,154.40
2018-03-04T04:15:36.811Z,155.90
2018-03-04T04:16:36.970Z,152.70
2018-03-04T04:17:37.139Z,153.20
2018-03-04T04:18:37.314Z,153.50
2018-03-04T04:19:37.486Z,150.30
2018-03-04T04:20:37.663Z,159.40
2018-03-04T04:21:37.860Z,155.00
2018-03-04T04:22:38.004Z,150.90
2018-03-04T04:23:38.186Z,156.80
2018-03-04T04:24:38.344Z,154.10
2018-03-04T04:25:38.522Z,156.70
2018-03-04T04:26:38.696Z,158.40
2018-03-04T04:27:38.890Z,154.30
2018-03-04T04:28:39.038Z,153.90
2018-03-04T04:29:39.241Z,159.10
2018-03-04T04:30:39.376Z,158.00
2018-03-04T04:31:39.549Z,156.50
2018-03-04T04:32:39.722Z,149.80
2018-03-04T04:33:39.892Z,155.20
2018-03-04T04:34:40.070Z,160.40
2018-03-04T04:35:40.236Z,153.70
2018-03-04T04:36:40.415Z,151.50
2018-03-04T04:37:40.586Z,154.90
2018-03-04T04:38:40.764Z,151.70
2018-03-04T04:39:40.950Z,158.10
2018-03-04T04:40:41.108Z,156.70
2018-03-04T04:41:41.275Z,156.60
2018-03-04T04:42:41.447Z,152.60
2018-03-04T04:43:41.618Z,148.30
2018-03-04T04:44:41.800Z,155.30
2018-03-04T04:45:41.959Z,152.10
2018-03-04T04:46:42.133Z,152.80
2018-03-04T04:47:42.305Z,154.50
2018-03-04T04:48:42.478Z,155.20
2018-03-04T04:49:42.647Z,156.40
2018-03-04T04:50:42.826Z,153.80
2018-03-04T04:51:42.997Z,153.60
2018-03-04T04:52:43.175Z,159.60
2018-03-04T04:53:43.345Z,156.60
2018-03-04T04:54:43.523Z,157.10
2018-03-04T04:55:43.687Z,156.10
2018-03-04T04:56:43.861Z,154.90
2018-03-04T04:57:44.028Z,156.00
2018-03-04T04:58:44.201Z,156.70
2018-03-04T04:59:44.385Z,156.80
2018-03-04T05:01:44.718Z,158.00
2018-03-04T05:02:45.111Z,157.90
2018-03-04T05:03:45.053Z,145.20
2018-03-04T05:04:45.733Z,155.40
2018-03-04T05:05:45.758Z,150.90
2018-03-04T05:06:45.678Z,157.50
2018-03-04T05:07:48.408Z,154.30
2018-03-04T05:08:48.174Z,159.30
2018-03-04T05:09:46.218Z,163.40
2018-03-04T05:10:46.382Z,153.80
2018-03-04T05:11:46.559Z,159.60
2018-03-04T05:12:46.724Z,163.30
2018-03-04T05:13:46.898Z,153.80
2018-03-04T05:14:47.072Z,159.90
2018-03-04T05:15:47.254Z,155.30
2018-03-04T05:16:47.414Z,151.80
2018-03-04T05:17:47.589Z,149.80
2018-03-04T05:18:47.764Z,154.90
2018-03-04T05:19:47.935Z,155.30
2018-03-04T05:20:48.120Z,158.90
2018-03-04T05:21:48.287Z,153.40
2018-03-04T05:22:48.461Z,155.60
2018-03-04T05:23:48.638Z,154.50
2018-03-04T05:24:48.804Z,148.80
2018-03-04T05:25:48.973Z,154.20
2018-03-04T05:26:49.159Z,152.70
2018-03-04T05:27:49.325Z,153.10
2018-03-04T05:28:49.493Z,160.70
2018-03-04T05:29:49.674Z,155.20
2018-03-04T05:30:49.847Z,157.80
2018-03-04T05:31:50.020Z,149.00
2018-03-04T05:32:50.195Z,148.80
2018-03-04T05:33:50.367Z,147.40
2018-03-04T05:34:50.540Z,145.30
2018-03-04T05:35:50.710Z,142.70
2018-03-04T05:36:50.882Z,147.90
2018-03-04T05:37:51.068Z,151.00
2018-03-04T05:38:51.241Z,148.60
2018-03-04T05:39:51.426Z,147.60
2018-03-04T05:40:51.596Z,153.00
2018-03-04T05:41:51.764Z,149.60
2018-03-04T05:43:52.097Z,151.40
2018-03-04T05:44:52.263Z,150.90
2018-03-04T05:45:52.435Z,152.70
2018-03-04T05:46:52.588Z,149.00
2018-03-04T05:47:52.789Z,150.80
2018-03-04T05:48:52.925Z,157.50
2018-03-04T05:49:53.101Z,150.70
2018-03-04T05:50:53.279Z,157.50
2018-03-04T05:51:53.436Z,159.40
2018-03-04T05:52:53.632Z,151.70
2018-03-04T05:53:53.790Z,163.80
2018-03-04T05:54:53.957Z,156.50
2018-03-04T05:55:54.121Z,154.80
2018-03-04T05:56:54.300Z,156.50
2018-03-04T05:57:54.468Z,159.20
2018-03-04T05:58:54.644Z,157.50
2018-03-04T05:59:54.815Z,152.30
2018-03-04T06:00:54.991Z,152.10
2018-03-04T06:01:55.176Z,157.70
2018-03-04T06:02:55.349Z,152.90
2018-03-04T06:03:55.523Z,158.60
2018-03-04T06:04:55.691Z,155.20
2018-03-04T06:05:55.864Z,154.00
2018-03-04T06:06:56.040Z,156.40
2018-03-04T06:07:56.213Z,152.40
2018-03-04T06:08:56.380Z,149.30
2018-03-04T06:09:56.549Z,150.10
2018-03-04T06:10:56.972Z,148.60
2018-03-04T06:11:56.893Z,156.60
2018-03-04T06:12:57.069Z,154.90
2018-03-04T06:13:57.246Z,152.60
2018-03-04T06:14:57.414Z,154.20
2018-03-04T06:15:57.588Z,150.90
2018-03-04T06:16:57.761Z,152.90
2018-03-04T06:17:57.931Z,148.20
2018-03-04T06:18:58.103Z,150.00
2018-03-04T06:19:58.281Z,149.80
2018-03-04T06:20:58.700Z,151.00
2018-03-04T06:21:58.616Z,150.90
2018-03-04T06:22:58.790Z,151.00
2018-03-04T06:23:58.968Z,147.90
2018-03-04T06:24:59.138Z,147.50
2018-03-04T06:25:59.311Z,143.70
2018-03-04T06:26:59.487Z,147.60
2018-03-04T06:27:59.658Z,147.10
2018-03-04T06:28:59.839Z,147.50
2018-03-04T06:30:00.001Z,151.20
2018-03-04T06:31:00.174Z,143.30
2018-03-04T06:32:00.354Z,150.50
2018-03-04T06:33:00.521Z,149.60
2018-03-04T06:34:00.697Z,154.40
2018-03-04T06:35:00.874Z,147.90
2018-03-04T06:36:01.039Z,157.90
2018-03-04T06:37:01.212Z,145.60
2018-03-04T06:38:01.381Z,148.30
2018-03-04T06:39:01.559Z,149.80
2018-03-04T06:40:01.726Z,144.70
2018-03-04T06:41:01.906Z,147.50
2018-03-04T06:42:02.080Z,152.10
2018-03-04T06:43:02.259Z,149.80
2018-03-04T06:44:02.440Z,145.90
2018-03-04T06:45:02.604Z,152.30
2018-03-04T06:46:02.776Z,148.30
2018-03-04T06:47:02.948Z,152.30
2018-03-04T06:48:03.123Z,150.90
2018-03-04T06:49:03.300Z,158.40
2018-03-04T06:50:03.465Z,156.00
2018-03-04T06:51:03.644Z,158.80
2018-03-04T06:52:03.820Z,153.80
2018-03-04T06:53:03.987Z,155.50
2018-03-04T06:54:04.416Z,162.20
2018-03-04T06:55:04.336Z,157.90
2018-03-04T06:56:04.512Z,149.90
2018-03-04T06:58:04.842Z,154.50
2018-03-04T06:59:05.010Z,158.00
2018-03-04T07:00:05.180Z,170.20
2018-03-04T07:01:05.348Z,163.60
2018-03-04T07:02:05.520Z,151.00
2018-03-04T07:03:05.691Z,148.40
2018-03-04T07:04:05.866Z,148.20
2018-03-04T07:05:06.040Z,150.00
2018-03-04T07:06:06.211Z,147.40
2018-03-04T07:07:06.387Z,154.30
2018-03-04T07:08:06.563Z,149.20
2018-03-04T07:09:06.749Z,150.80
2018-03-04T07:10:06.918Z,156.10
2018-03-04T07:11:07.088Z,145.00
2018-03-04T07:12:07.270Z,148.60
2018-03-04T07:13:07.435Z,149.00
2018-03-04T07:14:07.608Z,145.30
2018-03-04T07:15:07.785Z,148.10
2018-03-04T07:16:07.950Z,144.80
2018-03-04T07:17:08.149Z,148.00
2018-03-04T07:18:08.303Z,150.80
2018-03-04T07:19:08.467Z,147.90
2018-03-04T07:20:08.635Z,148.00
2018-03-04T07:21:08.810Z,146.10
2018-03-04T07:22:08.984Z,148.10
2018-03-04T07:23:09.162Z,149.80
2018-03-04T07:24:09.333Z,147.60
2018-03-04T07:25:09.510Z,150.00
2018-03-04T07:26:09.681Z,150.00
2018-03-04T07:27:09.859Z,147.50
2018-03-04T07:28:10.020Z,148.00
2018-03-04T07:29:10.196Z,150.20
2018-03-04T07:30:10.372Z,149.30
2018-03-04T07:31:10.542Z,153.60
2018-03-04T07:32:10.722Z,147.80
2018-03-04T07:33:10.884Z,149.40
2018-03-04T07:34:11.072Z,154.10
2018-03-04T07:35:11.248Z,153.70
2018-03-04T07:36:11.468Z,150.90
2018-03-04T07:37:11.595Z,149.30
2018-03-04T07:38:11.774Z,150.70
2018-03-04T07:39:11.947Z,151.90
2018-03-04T07:40:12.118Z,152.00
2018-03-04T07:41:12.291Z,150.50
2018-03-04T07:42:12.461Z,159.50
2018-03-04T07:43:12.639Z,167.20
2018-03-04T07:44:12.821Z,156.70
2018-03-04T07:45:12.986Z,156.30
2018-03-04T07:46:13.156Z,152.20
2018-03-04T07:47:13.343Z,148.70
2018-03-04T07:48:13.510Z,145.50
2018-03-04T07:49:13.676Z,146.60
2018-03-04T07:50:13.849Z,154.80
2018-03-04T07:51:14.021Z,150.20
2018-03-04T07:52:14.198Z,148.50
2018-03-04T07:53:14.367Z,148.60
2018-03-04T07:54:14.544Z,151.80
2018-03-04T07:55:14.727Z,151.20
2018-03-04T07:56:14.891Z,154.10
2018-03-04T07:57:15.064Z,148.70
2018-03-04T07:58:15.231Z,148.50
2018-03-04T07:59:15.408Z,147.60
2018-03-04T08:00:15.580Z,148.50
2018-03-04T08:01:15.758Z,148.10
2018-03-04T08:02:15.930Z,142.90
2018-03-04T08:03:16.100Z,148.40
2018-03-04T08:04:16.273Z,146.50
2018-03-04T08:05:16.445Z,149.30
2018-03-04T08:06:16.627Z,141.40
2018-03-04T08:07:16.799Z,145.20
2018-03-04T08:08:16.978Z,139.20
2018-03-04T08:09:17.151Z,141.50
2018-03-04T08:10:17.330Z,150.00
2018-03-04T08:11:17.498Z,143.60
2018-03-04T08:12:17.682Z,149.40
2018-03-04T08:13:17.831Z,145.30
2018-03-04T08:14:18.011Z,145.80
2018-03-04T08:15:20.582Z,147.10
2018-03-04T08:16:18.382Z,148.00
2018-03-04T08:17:18.551Z,142.80
2018-03-04T08:18:18.772Z,145.80
2018-03-04T08:19:18.902Z,147.80
2018-03-04T08:20:19.072Z,143.00
2018-03-04T08:21:19.248Z,138.60
2018-03-04T08:22:19.416Z,147.10
2018-03-04T08:23:19.588Z,142.90
2018-03-04T08:24:19.760Z,147.00
2018-03-04T08:25:19.938Z,136.40
2018-03-04T08:26:20.106Z,145.90
2018-03-04T08:27:20.285Z,139.80
2018-03-04T08:28:20.459Z,140.60
2018-03-04T08:29:20.632Z,139.50
2018-03-04T08:30:20.812Z,141.20
2018-03-04T08:31:20.984Z,144.80
2018-03-04T08:32:21.162Z,141.30
2018-03-04T08:33:21.338Z,139.10
2018-03-04T08:34:21.507Z,141.40
2018-03-04T08:35:21.681Z,139.30
2018-03-04T08:36:21.852Z,139.70
2018-03-04T08:37:22.023Z,141.60
2018-03-04T08:38:22.203Z,142.40
2018-03-04T08:39:22.377Z,142.10
2018-03-04T08:40:22.840Z,143.50
2018-03-04T08:41:22.719Z,141.00
2018-03-04T08:42:22.899Z,145.80
2018-03-04T08:44:23.238Z,144.50
2018-03-04T08:45:23.415Z,144.70
2018-03-04T08:46:23.585Z,143.40
2018-03-04T08:47:23.760Z,143.80
2018-03-04T08:48:23.934Z,148.10
2018-03-04T08:49:24.119Z,149.10
2018-03-04T08:50:24.302Z,147.70
2018-03-04T08:51:24.465Z,148.90
2018-03-04T08:52:24.640Z,148.10
2018-03-04T08:53:24.869Z,154.70
2018-03-04T08:54:24.992Z,151.10
2018-03-04T08:55:25.171Z,144.60
2018-03-04T08:56:25.348Z,146.50
2018-03-04T08:57:25.511Z,147.20
2018-03-04T08:58:25.686Z,139.50
2018-03-04T08:59:25.861Z,143.00
2018-03-04T09:00:26.030Z,137.90
2018-03-04T09:01:26.208Z,147.70
2018-03-04T09:02:26.391Z,143.50
2018-03-04T09:04:26.752Z,145.80
2018-03-04T09:05:26.916Z,141.70
2018-03-04T09:06:27.083Z,141.30
2018-03-04T09:07:27.255Z,141.30
2018-03-04T09:08:27.428Z,145.30
2018-03-04T09:09:27.607Z,137.90
2018-03-04T09:10:27.777Z,141.80
2018-03-04T09:11:27.956Z,145.40
2018-03-04T09:12:28.131Z,143.10
2018-03-04T09:13:28.304Z,140.60
2018-03-04T09:14:28.482Z,147.10
2018-03-04T09:15:28.656Z,143.00
2018-03-04T09:16:28.832Z,143.00
2018-03-04T09:17:29.008Z,146.50
2018-03-04T09:18:29.176Z,139.20
2018-03-04T09:19:29.356Z,141.80
2018-03-04T09:20:29.528Z,141.10
2018-03-04T09:21:29.699Z,138.80
2018-03-04T09:22:29.872Z,141.70
2018-03-04T09:23:30.048Z,143.70
2018-03-04T09:24:30.234Z,139.30
2018-03-04T09:25:30.394Z,136.00
2018-03-04T09:26:30.573Z,134.90
2018-03-04T09:27:30.743Z,132.10
2018-03-04T09:28:30.927Z,137.20
2018-03-04T09:29:31.091Z,138.70
2018-03-04T09:30:31.268Z,135.80
2018-03-04T09:31:31.449Z,129.90
2018-03-04T09:32:31.620Z,131.60
2018-03-04T09:33:31.797Z,132.70
2018-03-04T09:34:31.970Z,130.20
2018-03-04T09:35:32.150Z,130.60
2018-03-04T09:36:32.321Z,130.30
2018-03-04T09:37:32.496Z,133.20
2018-03-04T09:38:32.675Z,132.10
2018-03-04T09:39:32.842Z,129.10
2018-03-04T09:40:33.026Z,129.30
2018-03-04T09:41:33.195Z,127.10
2018-03-04T09:42:33.377Z,128.10
2018-03-04T09:43:33.543Z,126.60
2018-03-04T09:44:33.745Z,132.70
2018-03-04T09:45:33.910Z,128.80
2018-03-04T09:46:34.086Z,129.70
2018-03-04T09:47:34.262Z,123.80
2018-03-04T09:48:34.431Z,129.70
2018-03-04T09:49:34.606Z,127.70
2018-03-04T09:50:34.785Z,126.80
2018-03-04T09:51:34.959Z,127.10
2018-03-04T09:52:35.140Z,126.30
2018-03-04T09:53:35.314Z,129.10
2018-03-04T09:54:35.489Z,125.00
2018-03-04T09:55:35.661Z,131.50
2018-03-04T09:56:35.847Z,130.20
2018-03-04T09:57:36.089Z,129.00
2018-03-04T09:58:36.186Z,132.70
2018-03-04T09:59:36.382Z,130.80
2018-03-04T10:00:36.512Z,129.60
2018-03-04T10:01:36.693Z,126.90
2018-03-04T10:02:36.884Z,127.70
2018-03-04T10:03:37.042Z,128.50
2018-03-04T10:04:37.217Z,126.10
2018-03-04T10:05:37.393Z,123.40
2018-03-04T10:06:37.824Z,120.20
2018-03-04T10:07:37.752Z,130.40
2018-03-04T10:08:37.923Z,129.50
2018-03-04T10:09:38.102Z,126.70
2018-03-04T10:10:38.279Z,124.80
2018-03-04T10:11:38.449Z,125.50
2018-03-04T10:12:38.627Z,125.70
2018-03-04T10:13:39.046Z,121.90
2018-03-04T10:14:38.984Z,123.10
2018-03-04T10:15:39.155Z,121.80
2018-03-04T10:16:39.329Z,119.70
2018-03-04T10:17:39.514Z,120.80
2018-03-04T10:18:39.683Z,122.50
2018-03-04T10:19:39.851Z,121.60
2018-03-04T10:20:40.030Z,123.10
2018-03-04T10:21:40.205Z,124.10
2018-03-04T10:22:40.393Z,124.50
2018-03-04T10:23:40.797Z,122.30
2018-03-04T10:24:40.732Z,121.20
2018-03-04T10:25:40.903Z,124.90
2018-03-04T10:26:41.095Z,123.40
2018-03-04T10:27:41.260Z,118.00
2018-03-04T10:28:41.432Z,118.20
2018-03-04T10:29:41.617Z,118.30
2018-03-04T10:30:41.780Z,115.80
2018-03-04T10:31:41.976Z,113.30
2018-03-04T10:32:42.158Z,116.70
2018-03-04T10:33:42.324Z,116.30
2018-03-04T10:34:42.503Z,116.90
2018-03-04T10:35:42.695Z,120.40
2018-03-04T10:36:42.874Z,122.20
2018-03-04T10:37:43.051Z,120.40
2018-03-04T10:38:43.226Z,120.80
2018-03-04T10:39:43.420Z,124.40
2018-03-04T10:40:43.587Z,122.10
2018-03-04T10:41:43.755Z,128.30
2018-03-04T10:42:43.927Z,125.80
2018-03-04T10:43:44.111Z,119.30
2018-03-04T10:44:44.283Z,120.60
2018-03-04T10:45:44.457Z,125.10
2018-03-04T10:46:44.632Z,123.40
2018-03-04T10:47:44.808Z,121.60
2018-03-04T10:48:45.246Z,123.50
2018-03-04T10:49:45.173Z,120.90
2018-03-04T10:50:45.347Z,125.40
2018-03-04T10:51:45.524Z,120.70
2018-03-04T10:52:45.700Z,122.80
2018-03-04T10:53:46.672Z,124.60
2018-03-04T10:54:46.088Z,120.40
2018-03-04T10:55:46.281Z,121.90
2018-03-04T10:56:46.442Z,122.20
2018-03-04T10:57:46.634Z,124.90
2018-03-04T10:58:46.822Z,119.10
2018-03-04T10:59:46.976Z,125.30
2018-03-04T11:00:47.443Z,120.80
2018-03-04T11:01:47.328Z,121.20
2018-03-04T11:02:47.502Z,118.80
2018-03-04T11:03:47.676Z,117.00
2018-03-04T11:04:47.863Z,121.40
2018-03-04T11:05:48.034Z,125.10
2018-03-04T11:06:48.209Z,123.00
2018-03-04T11:07:48.383Z,121.20
2018-03-04T11:08:48.568Z,120.70
2018-03-04T11:09:48.746Z,115.20
2018-03-04T11:10:48.921Z,124.00
2018-03-04T11:11:49.089Z,121.00
2018-03-04T11:12:49.257Z,118.70
2018-03-04T11:13:49.446Z,119.70
2018-03-04T11:14:49.618Z,117.90
2018-03-04T11:15:49.791Z,120.10
2018-03-04T11:16:49.963Z,119.50
2018-03-04T11:17:50.155Z,117.30
2018-03-04T11:18:50.318Z,225.10
2018-03-04T11:19:50.500Z,125.20
2018-03-04T11:21:50.835Z,113.70
2018-03-04T11:22:51.008Z,118.20
2018-03-04T11:23:51.192Z,116.50
2018-03-04T11:24:51.375Z,116.40
2018-03-04T11:25:51.542Z,119.90
2018-03-04T11:26:51.721Z,120.40
2018-03-04T11:27:51.903Z,116.80
2018-03-04T11:28:52.112Z,114.00
2018-03-04T11:29:52.285Z,113.30
2018-03-04T11:30:52.459Z,111.70
2018-03-04T11:31:52.641Z,116.70
2018-03-04T11:32:52.822Z,110.30
2018-03-04T11:33:52.990Z,116.90
2018-03-04T11:34:53.170Z,118.20
2018-03-04T11:35:53.356Z,116.00
2018-03-04T11:36:53.533Z,116.10
2018-03-04T11:37:53.711Z,112.40
2018-03-04T11:38:53.898Z,113.90
2018-03-04T11:39:54.066Z,122.70
2018-03-04T11:40:54.241Z,120.60
2018-03-04T11:41:54.420Z,123.00
2018-03-04T11:42:54.660Z,117.50
2018-03-04T11:43:54.780Z,112.80
2018-03-04T11:44:54.949Z,121.10
2018-03-04T11:45:55.130Z,116.00
2018-03-04T11:46:55.310Z,118.50
2018-03-04T11:47:55.485Z,119.30
2018-03-04T11:48:55.675Z,123.80
2018-03-04T11:49:55.853Z,123.50
2018-03-04T11:50:56.037Z,118.80
2018-03-04T11:51:56.216Z,113.60
2018-03-04T11:52:56.395Z,106.90
2018-03-04T11:53:56.587Z,106.70
2018-03-04T11:54:56.774Z,108.50
2018-03-04T11:55:56.936Z,109.30
2018-03-04T11:56:57.115Z,108.50
2018-03-04T11:57:57.294Z,108.80
2018-03-04T11:58:57.473Z,112.00
2018-03-04T11:59:57.650Z,109.00
2018-03-04T12:00:57.816Z,104.60
2018-03-04T12:01:57.990Z,103.20
2018-03-04T12:02:58.164Z,101.80
2018-03-04T12:03:58.347Z,101.30
2018-03-04T12:04:58.527Z,105.80
2018-03-04T12:05:58.709Z,100.80
2018-03-04T12:06:58.880Z,106.10
2018-03-04T12:08:59.230Z,97.10
2018-03-04T12:09:59.406Z,99.10
2018-03-04T12:10:59.592Z,97.50
2018-03-04T12:11:59.759Z,101.70
2018-03-04T12:12:59.941Z,108.70
2018-03-04T12:14:00.117Z,102.40
2018-03-04T12:15:00.470Z,110.20
2018-03-04T12:16:00.449Z,96.30
2018-03-04T12:17:03.517Z,100.20
2018-03-04T12:18:00.826Z,96.50
2018-03-04T12:19:01.000Z,108.60
2018-03-04T12:20:01.186Z,98.20
2018-03-04T12:21:01.357Z,99.80
2018-03-04T12:22:01.552Z,96.80
2018-03-04T12:23:03.939Z,96.20
2018-03-04T12:24:02.059Z,95.50
2018-03-04T12:25:02.155Z,92.90
2018-03-04T12:26:02.332Z,91.60
2018-03-04T12:27:02.513Z,91.70
2018-03-04T12:28:02.690Z,99.20
2018-03-04T12:29:02.882Z,112.90
2018-03-04T12:30:03.054Z,100.80
2018-03-04T12:31:03.232Z,100.70
2018-03-04T12:32:03.420Z,93.00
2018-03-04T12:33:03.587Z,90.60
2018-03-04T12:34:03.767Z,90.50
2018-03-04T12:35:03.946Z,88.10
2018-03-04T12:36:04.126Z,89.30
2018-03-04T12:37:04.303Z,90.00
2018-03-04T12:38:04.503Z,88.10
2018-03-04T12:39:06.878Z,89.50
2018-03-04T12:40:04.923Z,91.70
2018-03-04T12:41:05.103Z,84.40
2018-03-04T12:42:05.280Z,88.80